Airfield :







YOU CAN JOIN US ON...

 
LOGIN :

Register | Disclaimer

   EN    FR    IT 

 









Legend :    VFR   Marginal VFR   IFR   Intensive IFR   Very Intensive IFR
Visi :
Ceiling :
>= 8 km
>= 3000ft
5 to 8 km
1000 to 3000 ft
1500m to 5 km
500 to 1000 ft
800 to 1500m
200 to 500 ft
< 800m
< 200 ft
Symbols :   Thunderstorms  Fog  Heavy snow  Heavy precipitations  Wind > 20 kt






- Airport Elevation : 1161 ft


KBML - Berlin Regional

CURRENT METAR :
  • 031752Z AUTO 00000KT 10SM OVC017 15/10 A2954 RMK AO2 SLP006 T01500100 10150 20106 58017

EXPIRED METARs :
  • 031736Z AUTO 36003KT 10SM OVC016 15/11 A2955 RMK AO2 T01500106
  • 031652Z AUTO 00000KT 10SM OVC013 15/10 A2956 RMK AO2 SLP014 T01500100
  • 031626Z AUTO 00000KT 10SM OVC014 14/10 A2957 RMK AO2 T01440100
  • 031552Z AUTO 00000KT 10SM OVC016 14/10 A2958 RMK AO2 SLP020 T01390100

TAF N/A
KZBW FIR / North America



MET'MAP, your aeronautical weather chart ! - Copyright ORBIFLY December 2007 - Disclaimer

ORBIFLY MET'MAP TEAM :

Programming & Development : Alexandra Zaïnal
Concept & original design : Baudouin d'Aumeries
Assistance for programming : Marc-Olivier Méhu
Technical & hardware support : Manuel Goepfert

Contact : metmap@orbifly.com




SOURCES & CREDITS :

   NOAA